Time;durP1;ratioP1;P1;durP2;ratioP2;P2;SDS_P1;SDS_P2;PMS_P1;PMS_P2;Temp;Humidity;BMP_temperature;BMP_pressure;BME280_temperature;BME280_humidity;BME280_pressure;Samples;Min_cycle;Max_cycle;Signal;HPM_P1;HPM_P2
2024/01/22 00:01:45;;;;;;;2.97;2.67;;;18.10;52.70;;;;;;5069820;28;20321;-72
2024/01/22 00:04:11;;;;;;;3.05;2.72;;;18.10;52.70;;;;;;5069291;28;20221;-72
2024/01/22 00:06:42;;;;;;;2.92;2.67;;;18.20;52.80;;;;;;5049210;28;20206;-72
2024/01/22 00:09:08;;;;;;;3.10;2.80;;;18.10;52.70;;;;;;5069427;28;20196;-72
2024/01/22 00:11:33;;;;;;;3.08;2.78;;;18.20;52.80;;;;;;5050743;28;20179;-72
2024/01/22 00:14:00;;;;;;;3.05;2.75;;;18.10;52.70;;;;;;5054037;28;20189;-72
2024/01/22 00:16:26;;;;;;;2.80;2.50;;;18.20;52.80;;;;;;5050138;28;20222;-71
2024/01/22 00:18:52;;;;;;;3.08;2.42;;;18.10;52.80;;;;;;5068977;28;20197;-72
2024/01/22 00:21:18;;;;;;;2.67;2.47;;;18.20;52.80;;;;;;5051074;28;20182;-72
2024/01/22 00:23:44;;;;;;;2.75;2.55;;;18.10;52.70;;;;;;5051024;28;20218;-71
2024/01/22 00:26:12;;;;;;;2.95;2.60;;;18.10;52.70;;;;;;5087134;28;20210;-72
2024/01/22 00:28:42;;;;;;;2.50;2.22;;;18.20;52.80;;;;;;5063314;28;20187;-72
2024/01/22 00:31:08;;;;;;;2.85;2.60;;;18.10;52.80;;;;;;5051490;28;20185;-72
2024/01/22 00:33:34;;;;;;;2.65;2.45;;;18.10;52.70;;;;;;5066038;28;20194;-72
2024/01/22 00:36:02;;;;;;;3.08;2.30;;;18.10;52.70;;;;;;5067928;28;20239;-72
2024/01/22 00:38:28;;;;;;;2.33;2.13;;;18.10;52.70;;;;;;5049110;28;20185;-72
2024/01/22 00:40:54;;;;;;;2.75;2.50;;;18.20;52.80;;;;;;5050954;28;20186;-72
2024/01/22 00:43:19;;;;;;;2.83;2.50;;;18.10;52.70;;;;;;5067935;28;20672;-72
2024/01/22 00:45:45;;;;;;;2.83;2.28;;;18.10;52.80;;;;;;5054155;28;20198;-72
2024/01/22 00:48:11;;;;;;;2.30;2.10;;;18.10;52.70;;;;;;5050760;28;20201;-71
2024/01/22 00:50:37;;;;;;;2.55;2.20;;;18.10;52.70;;;;;;5048477;28;20556;-71
2024/01/22 00:53:03;;;;;;;2.85;2.38;;;18.10;52.70;;;;;;5050747;28;20610;-72
2024/01/22 00:55:28;;;;;;;2.10;2.00;;;18.10;52.60;;;;;;5064921;28;20218;-71
2024/01/22 00:57:54;;;;;;;2.65;2.45;;;18.20;52.70;;;;;;5050397;28;20209;-72
2024/01/22 01:00:20;;;;;;;2.65;2.42;;;18.20;52.80;;;;;;5049391;28;20645;-72
2024/01/22 01:02:49;;;;;;;2.50;2.30;;;18.20;52.80;;;;;;5052098;28;20233;-71
2024/01/22 01:05:16;;;;;;;2.72;2.45;;;18.20;52.70;;;;;;5065338;28;20757;-71
2024/01/22 01:07:42;;;;;;;2.28;2.08;;;18.20;52.80;;;;;;5067208;28;20206;-71
2024/01/22 01:10:08;;;;;;;2.47;2.28;;;18.20;52.70;;;;;;5082313;28;20196;-71
2024/01/22 01:12:33;;;;;;;2.78;1.88;;;18.20;52.70;;;;;;5063481;28;20193;-71
2024/01/22 01:14:59;;;;;;;3.17;2.40;;;18.10;52.60;;;;;;5067856;28;20192;-71
2024/01/22 01:17:25;;;;;;;2.15;1.95;;;18.20;52.80;;;;;;5047772;28;20463;-71
2024/01/22 01:19:50;;;;;;;2.17;1.98;;;18.20;52.70;;;;;;5068324;28;20201;-71
2024/01/22 01:22:17;;;;;;;2.30;2.10;;;18.10;52.70;;;;;;5082342;28;20565;-72
2024/01/22 01:24:42;;;;;;;2.47;2.10;;;18.10;52.80;;;;;;5062785;28;20192;-71
2024/01/22 01:27:08;;;;;;;1.98;1.83;;;18.10;52.80;;;;;;5066218;28;20210;-71
2024/01/22 01:29:34;;;;;;;2.00;1.90;;;18.20;52.80;;;;;;5046931;28;20186;-72
2024/01/22 01:32:00;;;;;;;2.05;1.85;;;18.20;52.80;;;;;;5049106;28;20185;-71
2024/01/22 01:34:25;;;;;;;2.65;2.45;;;18.20;52.70;;;;;;5047243;28;20200;-72
2024/01/22 01:36:51;;;;;;;2.10;1.90;;;18.20;52.80;;;;;;5070360;28;20271;-71
2024/01/22 01:39:17;;;;;;;2.17;1.98;;;18.20;52.80;;;;;;5048456;28;20230;-72
2024/01/22 01:41:42;;;;;;;2.00;1.80;;;18.20;52.80;;;;;;5063787;28;20190;-72
2024/01/22 01:44:08;;;;;;;1.92;1.80;;;18.20;52.70;;;;;;5051143;28;20209;-72
2024/01/22 01:46:34;;;;;;;2.38;2.13;;;18.20;52.80;;;;;;5062570;28;20242;-72
2024/01/22 01:49:00;;;;;;;1.90;1.80;;;18.20;52.80;;;;;;5066826;28;20186;-72
2024/01/22 01:51:26;;;;;;;2.03;1.83;;;18.20;52.70;;;;;;5063040;28;20177;-72
2024/01/22 01:53:54;;;;;;;2.20;2.00;;;18.20;52.80;;;;;;5064493;28;20202;-72
2024/01/22 01:56:20;;;;;;;2.00;1.90;;;18.20;52.80;;;;;;5068632;28;20211;-72
2024/01/22 01:58:47;;;;;;;2.00;1.80;;;18.20;52.80;;;;;;5060725;28;20191;-72
2024/01/22 02:01:15;;;;;;;2.15;1.90;;;18.20;52.80;;;;;;5081460;28;20314;-72
2024/01/22 02:03:41;;;;;;;2.10;1.90;;;18.20;52.90;;;;;;5050584;28;20215;-71
2024/01/22 02:06:07;;;;;;;2.13;1.90;;;18.20;52.80;;;;;;5066245;28;20192;-72
2024/01/22 02:08:33;;;;;;;1.77;1.63;;;18.20;52.90;;;;;;5045463;28;20264;-72
2024/01/22 02:10:59;;;;;;;2.00;1.90;;;18.20;52.90;;;;;;5050939;28;20190;-72
2024/01/22 02:13:26;;;;;;;2.28;2.08;;;18.20;52.90;;;;;;5046438;28;20189;-72
2024/01/22 02:15:53;;;;;;;1.67;1.58;;;18.20;52.90;;;;;;5052179;28;20189;-72
2024/01/22 02:18:19;;;;;;;2.00;1.80;;;18.20;52.80;;;;;;5047275;28;20185;-72
2024/01/22 02:20:45;;;;;;;2.33;2.00;;;18.20;52.90;;;;;;5066925;28;20680;-71
2024/01/22 02:23:10;;;;;;;2.10;1.90;;;18.20;52.80;;;;;;5067263;28;20208;-72
2024/01/22 02:25:36;;;;;;;1.80;1.70;;;18.20;52.90;;;;;;5078194;28;20182;-72
2024/01/22 02:28:02;;;;;;;1.88;1.70;;;18.20;53.00;;;;;;5068440;28;20746;-72
2024/01/22 02:30:28;;;;;;;2.78;1.95;;;18.20;53.00;;;;;;5062345;28;20255;-72
2024/01/22 02:32:53;;;;;;;1.98;1.75;;;18.20;53.00;;;;;;5063633;28;20236;-72
2024/01/22 02:35:21;;;;;;;2.00;1.90;;;18.20;53.00;;;;;;5063204;28;20192;-72
2024/01/22 02:37:47;;;;;;;1.88;1.77;;;18.20;52.90;;;;;;5051705;28;20206;-72
2024/01/22 02:40:13;;;;;;;2.05;1.63;;;18.20;53.00;;;;;;5080941;28;20700;-72
2024/01/22 02:42:39;;;;;;;1.83;1.65;;;18.20;53.00;;;;;;5050482;28;20212;-72
2024/01/22 02:45:07;;;;;;;2.10;1.90;;;18.20;53.00;;;;;;5080731;28;20190;-72
2024/01/22 02:47:34;;;;;;;1.80;1.70;;;18.20;53.00;;;;;;5061211;28;20218;-72
2024/01/22 02:50:01;;;;;;;2.20;2.00;;;18.20;53.00;;;;;;5064955;28;20543;-73
2024/01/22 02:52:27;;;;;;;2.03;1.80;;;18.20;52.80;;;;;;5045121;28;20537;-72
2024/01/22 02:54:53;;;;;;;1.80;1.70;;;18.20;52.80;;;;;;5053073;28;20306;-72
2024/01/22 02:57:19;;;;;;;2.10;1.90;;;18.20;52.90;;;;;;5046122;28;20262;-72
2024/01/22 02:59:45;;;;;;;1.65;1.55;;;18.20;52.90;;;;;;5051271;28;20232;-72
2024/01/22 03:02:10;;;;;;;1.95;1.52;;;18.20;52.90;;;;;;5043173;28;20193;-72
2024/01/22 03:04:36;;;;;;;1.90;1.80;;;18.20;52.90;;;;;;5043541;28;20568;-72
2024/01/22 03:07:02;;;;;;;2.00;1.80;;;18.20;53.00;;;;;;5050116;28;20270;-72
2024/01/22 03:09:28;;;;;;;1.70;1.60;;;18.20;52.90;;;;;;5063681;28;20177;-72
2024/01/22 03:11:54;;;;;;;1.88;1.77;;;18.20;52.90;;;;;;5063445;28;20638;-72
2024/01/22 03:14:19;;;;;;;1.70;1.60;;;18.20;53.00;;;;;;5048692;28;20190;-72
2024/01/22 03:16:45;;;;;;;1.70;1.60;;;18.20;52.90;;;;;;5065666;28;20254;-72
2024/01/22 03:19:11;;;;;;;1.58;1.48;;;18.20;53.00;;;;;;5063631;28;20194;-72
2024/01/22 03:21:37;;;;;;;1.85;1.52;;;18.20;53.00;;;;;;5063202;28;20673;-72
2024/01/22 03:24:03;;;;;;;1.77;1.67;;;18.20;53.00;;;;;;5079753;28;20201;-72
2024/01/22 03:26:29;;;;;;;2.13;1.92;;;18.20;53.00;;;;;;5047643;28;20213;-72
2024/01/22 03:28:54;;;;;;;2.53;1.63;;;18.20;52.90;;;;;;5052356;28;20205;-72
2024/01/22 03:31:26;;;;;;;1.67;1.55;;;18.20;53.00;;;;;;5045177;28;20189;-72
2024/01/22 03:33:53;;;;;;;1.90;1.63;;;18.20;52.90;;;;;;5065966;28;20194;-72
2024/01/22 03:36:21;;;;;;;2.08;1.88;;;18.20;52.90;;;;;;5048971;28;20209;-72
2024/01/22 03:38:47;;;;;;;1.88;1.67;;;18.20;52.80;;;;;;5064547;28;20187;-72
2024/01/22 03:41:13;;;;;;;1.70;1.60;;;18.20;52.80;;;;;;5069736;28;20538;-72
2024/01/22 03:43:42;;;;;;;1.60;1.50;;;18.20;52.90;;;;;;5069414;28;20224;-72
2024/01/22 03:46:10;;;;;;;1.75;1.52;;;18.20;52.90;;;;;;5065402;28;20186;-72
2024/01/22 03:48:36;;;;;;;1.85;1.45;;;18.20;52.90;;;;;;5079869;28;20190;-72
2024/01/22 03:51:02;;;;;;;1.67;1.45;;;18.20;52.80;;;;;;5056086;28;20231;-72
2024/01/22 03:53:28;;;;;;;1.80;1.70;;;18.20;52.90;;;;;;5044564;28;20189;-72
2024/01/22 03:55:54;;;;;;;1.60;1.50;;;18.20;52.90;;;;;;5054726;28;20198;-72
2024/01/22 03:58:20;;;;;;;1.85;1.52;;;18.20;52.90;;;;;;5068413;28;20194;-72
2024/01/22 04:00:45;;;;;;;1.65;1.55;;;18.20;52.90;;;;;;5072432;28;20245;-72
2024/01/22 04:03:11;;;;;;;1.70;1.60;;;18.20;52.90;;;;;;5085855;28;20216;-72
2024/01/22 04:05:37;;;;;;;1.50;1.40;;;18.20;52.80;;;;;;5065709;28;20186;-72
2024/01/22 04:08:06;;;;;;;1.73;1.50;;;18.20;52.90;;;;;;5052371;28;20198;-72
2024/01/22 04:10:31;;;;;;;1.52;1.42;;;18.20;53.00;;;;;;5049720;28;20228;-72
2024/01/22 04:12:57;;;;;;;1.40;1.30;;;18.20;52.90;;;;;;5055739;28;20219;-72
2024/01/22 04:15:23;;;;;;;2.22;1.60;;;18.20;52.90;;;;;;5068883;28;20227;-72
2024/01/22 04:17:49;;;;;;;1.70;1.60;;;18.20;52.90;;;;;;5080102;28;20215;-72
2024/01/22 04:20:15;;;;;;;1.70;1.60;;;18.20;52.90;;;;;;5051854;28;20557;-72
2024/01/22 04:22:41;;;;;;;1.83;1.73;;;18.20;53.00;;;;;;5069264;28;20210;-72
2024/01/22 04:25:08;;;;;;;1.70;1.60;;;18.20;53.00;;;;;;5048386;28;20212;-72
2024/01/22 04:27:34;;;;;;;1.58;1.48;;;18.20;52.90;;;;;;5048319;28;20715;-71
2024/01/22 04:30:00;;;;;;;3.05;1.75;;;18.20;53.00;;;;;;5081450;28;20207;-71
2024/01/22 04:32:26;;;;;;;1.77;1.60;;;18.20;52.90;;;;;;5049817;28;20192;-71
2024/01/22 04:34:52;;;;;;;1.80;1.70;;;18.20;52.90;;;;;;5070427;28;20179;-72
2024/01/22 04:37:18;;;;;;;1.77;1.50;;;18.20;52.80;;;;;;5080797;28;20213;-72
2024/01/22 04:39:44;;;;;;;1.73;1.60;;;18.20;52.90;;;;;;5062280;28;20312;-72
2024/01/22 04:42:10;;;;;;;1.58;1.48;;;18.20;52.80;;;;;;5064620;28;20350;-72
2024/01/22 04:44:36;;;;;;;1.58;1.48;;;18.20;52.80;;;;;;5044274;28;20215;-72
2024/01/22 04:47:02;;;;;;;1.70;1.60;;;18.20;52.80;;;;;;5054942;28;20202;-72
2024/01/22 04:49:28;;;;;;;1.45;1.35;;;18.20;52.80;;;;;;5045913;28;20208;-72
2024/01/22 04:51:54;;;;;;;1.70;1.42;;;18.20;52.80;;;;;;5063966;28;20834;-72
2024/01/22 04:54:20;;;;;;;1.92;1.70;;;18.20;52.80;;;;;;5045723;28;20196;-72
2024/01/22 04:56:47;;;;;;;2.10;1.50;;;18.20;52.80;;;;;;5052438;28;20302;-72
2024/01/22 04:59:13;;;;;;;1.50;1.40;;;18.20;52.90;;;;;;5063989;28;20181;-72
2024/01/22 05:01:42;;;;;;;1.60;1.50;;;18.20;52.90;;;;;;5060703;28;20220;-72
2024/01/22 05:04:08;;;;;;;1.85;1.75;;;18.20;52.80;;;;;;5076522;28;20213;-72
2024/01/22 05:06:34;;;;;;;1.55;1.45;;;18.20;52.90;;;;;;5044169;28;20210;-73
2024/01/22 05:09:00;;;;;;;1.40;1.30;;;18.20;52.80;;;;;;5046066;28;20198;-72
2024/01/22 05:11:25;;;;;;;2.10;1.40;;;18.20;52.90;;;;;;5045219;28;20182;-72
2024/01/22 05:13:53;;;;;;;1.60;1.50;;;18.20;53.00;;;;;;5052603;28;20194;-72
2024/01/22 05:16:22;;;;;;;1.50;1.20;;;18.20;52.90;;;;;;5045990;28;20225;-72
2024/01/22 05:18:51;;;;;;;1.75;1.50;;;18.20;52.90;;;;;;5052465;28;20197;-72
2024/01/22 05:21:18;;;;;;;1.40;1.30;;;18.20;53.00;;;;;;5079733;28;20744;-72
2024/01/22 05:23:44;;;;;;;1.55;1.45;;;18.20;52.90;;;;;;5059798;28;20206;-72
2024/01/22 05:26:10;;;;;;;1.65;1.50;;;18.20;52.80;;;;;;5046814;28;20185;-73
2024/01/22 05:28:36;;;;;;;1.95;1.40;;;18.30;52.90;;;;;;5056658;28;20197;-72
2024/01/22 05:31:02;;;;;;;1.60;1.50;;;18.30;52.80;;;;;;5067719;28;20215;-73
2024/01/22 05:33:28;;;;;;;1.60;1.50;;;18.20;52.80;;;;;;5050343;28;20242;-72
2024/01/22 05:35:55;;;;;;;1.60;1.50;;;18.20;52.80;;;;;;5062759;28;20194;-72
2024/01/22 05:38:22;;;;;;;1.60;1.50;;;18.30;52.90;;;;;;5045483;28;20185;-72
2024/01/22 05:40:48;;;;;;;1.60;1.40;;;18.30;52.90;;;;;;5060202;28;20194;-72
2024/01/22 05:43:13;;;;;;;1.73;1.40;;;18.30;52.90;;;;;;5066644;28;20302;-72
2024/01/22 05:45:39;;;;;;;1.60;1.13;;;18.30;52.90;;;;;;5064461;28;20187;-72
2024/01/22 05:48:07;;;;;;;1.52;1.42;;;18.30;52.90;;;;;;5058761;28;20205;-72
2024/01/22 05:50:33;;;;;;;1.60;1.38;;;18.30;53.00;;;;;;5038737;28;20182;-72
2024/01/22 05:52:59;;;;;;;1.52;1.42;;;18.30;53.00;;;;;;5062507;28;20646;-72
2024/01/22 05:55:28;;;;;;;1.70;1.60;;;18.30;53.00;;;;;;5059342;28;20205;-72
2024/01/22 05:57:54;;;;;;;1.35;1.25;;;18.30;53.00;;;;;;5060360;28;20210;-72
2024/01/22 06:00:21;;;;;;;1.98;1.88;;;18.20;53.00;;;;;;5048778;28;20185;-74
2024/01/22 06:02:47;;;;;;;1.48;1.38;;;18.20;53.00;;;;;;5063445;28;20240;-73
2024/01/22 06:05:12;;;;;;;1.65;1.50;;;18.20;53.00;;;;;;5062158;28;20186;-72
2024/01/22 06:07:39;;;;;;;1.52;1.20;;;18.20;52.80;;;;;;5062923;28;20218;-72
2024/01/22 06:10:08;;;;;;;2.05;1.63;;;18.20;53.00;;;;;;5061502;28;20189;-73
2024/01/22 06:12:37;;;;;;;1.70;1.48;;;18.20;53.00;;;;;;5039543;28;20300;-73
2024/01/22 06:15:03;;;;;;;1.48;1.38;;;18.30;53.10;;;;;;5058444;28;20223;-73
2024/01/22 06:17:31;;;;;;;2.15;1.50;;;18.20;52.90;;;;;;5066074;28;20220;-73
2024/01/22 06:20:00;;;;;;;1.58;1.48;;;18.20;52.90;;;;;;5077285;28;20234;-72
2024/01/22 06:22:27;;;;;;;1.70;1.60;;;18.30;53.00;;;;;;5047320;28;20189;-73
2024/01/22 06:24:53;;;;;;;1.42;1.30;;;18.20;52.90;;;;;;5051337;28;20183;-73
2024/01/22 06:27:19;;;;;;;1.45;1.35;;;18.20;52.90;;;;;;5044227;28;20201;-73
2024/01/22 06:29:44;;;;;;;1.58;1.48;;;18.20;52.80;;;;;;5063852;28;20193;-73
2024/01/22 06:32:10;;;;;;;1.70;1.58;;;18.30;53.00;;;;;;5049173;28;20189;-73
2024/01/22 06:34:36;;;;;;;1.67;1.58;;;18.30;53.00;;;;;;5066779;28;20252;-73
2024/01/22 06:37:04;;;;;;;1.20;1.10;;;18.30;53.10;;;;;;5052593;28;20215;-73
2024/01/22 06:39:30;;;;;;;1.85;1.48;;;18.30;53.00;;;;;;5042200;28;20195;-73
2024/01/22 06:41:56;;;;;;;1.38;1.27;;;18.30;53.00;;;;;;5057452;28;20278;-73
2024/01/22 06:44:21;;;;;;;1.50;1.40;;;18.30;53.00;;;;;;5060013;28;20249;-73
2024/01/22 06:46:47;;;;;;;1.50;1.40;;;18.30;52.90;;;;;;5055251;28;20199;-73
2024/01/22 06:49:13;;;;;;;2.05;1.50;;;18.30;53.00;;;;;;5044714;28;20249;-73
2024/01/22 06:51:39;;;;;;;1.52;1.30;;;18.30;53.00;;;;;;5062348;28;20189;-73
2024/01/22 06:54:05;;;;;;;1.38;1.27;;;18.30;53.00;;;;;;5060301;28;20193;-73
2024/01/22 06:56:31;;;;;;;1.55;1.25;;;18.30;53.00;;;;;;5042065;28;20205;-73
2024/01/22 06:58:57;;;;;;;1.52;1.42;;;18.30;53.10;;;;;;5059357;28;20282;-73
2024/01/22 07:01:23;;;;;;;1.50;1.30;;;18.30;53.10;;;;;;5058643;28;20276;-73
2024/01/22 07:03:49;;;;;;;1.70;1.48;;;18.30;53.00;;;;;;5043871;28;20200;-73
2024/01/22 07:06:14;;;;;;;2.10;1.45;;;18.30;53.00;;;;;;5043916;28;20209;-73
2024/01/22 07:08:40;;;;;;;1.67;1.58;;;18.30;53.10;;;;;;5043882;28;20214;-73
2024/01/22 07:11:06;;;;;;;1.48;1.23;;;18.30;53.10;;;;;;5053766;28;20190;-73
2024/01/22 07:13:32;;;;;;;2.30;1.35;;;18.30;53.10;;;;;;5062045;28;20250;-73
2024/01/22 07:16:01;;;;;;;1.40;1.30;;;18.30;53.10;;;;;;5071578;28;20654;-73
2024/01/22 07:18:27;;;;;;;1.75;1.48;;;18.30;53.10;;;;;;5079349;28;20201;-73
2024/01/22 07:20:53;;;;;;;1.63;1.40;;;18.30;53.10;;;;;;5054303;28;20183;-73
2024/01/22 07:23:20;;;;;;;1.52;1.42;;;18.30;53.10;;;;;;5046704;28;20213;-73
2024/01/22 07:25:45;;;;;;;1.70;1.55;;;18.30;53.10;;;;;;5053234;28;20273;-73
2024/01/22 07:28:11;;;;;;;1.45;1.35;;;18.30;53.10;;;;;;5048580;28;20300;-73
2024/01/22 07:30:37;;;;;;;1.92;1.55;;;18.30;53.10;;;;;;5040858;28;20191;-73
2024/01/22 07:33:03;;;;;;;2.30;1.42;;;18.30;53.10;;;;;;5061579;28;20194;-73
2024/01/22 07:35:29;;;;;;;2.20;1.70;;;18.30;53.10;;;;;;5044896;28;20188;-73
2024/01/22 07:37:55;;;;;;;1.15;1.08;;;18.30;53.10;;;;;;5062900;28;20291;-73
2024/01/22 07:40:21;;;;;;;2.30;1.48;;;18.40;53.20;;;;;;5046363;28;20196;-73
2024/01/22 07:42:48;;;;;;;1.42;1.33;;;18.30;53.10;;;;;;5051435;28;20322;-73
2024/01/22 07:45:14;;;;;;;1.80;1.27;;;18.30;53.10;;;;;;5035142;28;20192;-73
2024/01/22 07:47:40;;;;;;;1.63;1.52;;;18.40;53.20;;;;;;5045103;28;20281;-73
2024/01/22 07:50:10;;;;;;;2.53;1.48;;;18.30;53.10;;;;;;5047167;28;20190;-73
2024/01/22 07:52:37;;;;;;;1.30;1.15;;;18.30;53.10;;;;;;5056513;28;20225;-73
2024/01/22 07:55:05;;;;;;;1.80;1.58;;;18.30;53.10;;;;;;5054749;28;20262;-73
2024/01/22 07:57:31;;;;;;;1.65;1.55;;;18.30;53.10;;;;;;5076107;28;20212;-73
2024/01/22 07:59:57;;;;;;;1.60;1.50;;;18.30;53.10;;;;;;5062377;28;20190;-73
2024/01/22 08:02:23;;;;;;;2.72;1.65;;;18.30;53.10;;;;;;5056609;28;20188;-73
2024/01/22 08:04:50;;;;;;;1.80;1.70;;;18.30;53.10;;;;;;5053379;28;20222;-72
2024/01/22 08:07:17;;;;;;;2.20;1.70;;;18.30;53.10;;;;;;5059959;28;20201;-73
2024/01/22 08:09:45;;;;;;;1.50;1.40;;;18.30;53.10;;;;;;5039892;28;20183;-73
2024/01/22 08:12:11;;;;;;;1.70;1.38;;;18.30;53.10;;;;;;5067158;28;20203;-73
2024/01/22 08:14:36;;;;;;;1.50;1.30;;;18.30;53.10;;;;;;5042778;28;20587;-73
2024/01/22 08:17:02;;;;;;;1.52;1.40;;;18.30;53.10;;;;;;5060169;28;20591;-73
2024/01/22 08:19:30;;;;;;;1.70;1.60;;;18.30;53.20;;;;;;5059804;28;20182;-73
2024/01/22 08:21:56;;;;;;;1.80;1.52;;;18.30;53.10;;;;;;5057873;28;20191;-73
2024/01/22 08:24:23;;;;;;;1.98;1.67;;;18.30;53.10;;;;;;5077967;28;20221;-73
2024/01/22 08:26:49;;;;;;;1.50;1.40;;;18.30;53.10;;;;;;5055770;28;20284;-73
2024/01/22 08:29:17;;;;;;;2.05;1.55;;;18.30;53.10;;;;;;5045543;28;20189;-73
2024/01/22 08:31:43;;;;;;;2.38;1.50;;;18.40;53.20;;;;;;5069093;28;20171;-73
2024/01/22 08:34:09;;;;;;;1.80;1.50;;;18.40;53.20;;;;;;5068831;28;20585;-73
2024/01/22 08:36:34;;;;;;;1.73;1.63;;;18.40;53.20;;;;;;5058843;28;20252;-73
2024/01/22 08:39:00;;;;;;;1.70;1.38;;;18.40;53.20;;;;;;5067067;28;20183;-73
2024/01/22 08:41:28;;;;;;;1.80;1.35;;;18.40;53.20;;;;;;5043962;28;20225;-73
2024/01/22 08:43:59;;;;;;;2.10;1.90;;;18.40;53.20;;;;;;5055271;28;20252;-73
2024/01/22 08:46:26;;;;;;;1.60;1.50;;;18.40;53.20;;;;;;5061359;28;20206;-73
2024/01/22 08:48:52;;;;;;;1.20;1.10;;;18.40;53.30;;;;;;5069197;28;20186;-73
2024/01/22 08:51:18;;;;;;;1.40;1.30;;;18.40;53.30;;;;;;5066859;28;20700;-73
2024/01/22 08:53:43;;;;;;;1.85;1.60;;;18.40;53.20;;;;;;5049971;28;20186;-73
2024/01/22 08:56:09;;;;;;;1.40;1.30;;;18.40;53.30;;;;;;5050022;28;20242;-73
2024/01/22 08:58:35;;;;;;;1.60;1.30;;;18.40;53.30;;;;;;5041737;28;20237;-73
2024/01/22 09:01:05;;;;;;;1.33;1.20;;;18.40;53.80;;;;;;5052947;28;20200;-73
2024/01/22 09:03:34;;;;;;;1.65;1.40;;;18.40;53.30;;;;;;5064042;28;20220;-73
2024/01/22 09:06:00;;;;;;;0.93;0.93;;;18.50;53.30;;;;;;5052784;28;20228;-73
2024/01/22 09:08:27;;;;;;;1.20;1.10;;;18.40;53.30;;;;;;5047751;28;20189;-73
2024/01/22 09:10:53;;;;;;;1.58;1.48;;;18.50;53.30;;;;;;5046177;28;20181;-73
2024/01/22 09:13:19;;;;;;;2.00;1.48;;;18.50;53.40;;;;;;5077665;28;20189;-73
2024/01/22 09:15:45;;;;;;;1.40;1.30;;;18.40;53.30;;;;;;5041761;28;20214;-73
2024/01/22 09:18:11;;;;;;;1.88;1.50;;;18.40;53.30;;;;;;5059671;28;20214;-73
2024/01/22 09:20:37;;;;;;;3.08;1.40;;;18.50;53.40;;;;;;5051180;28;20696;-73
2024/01/22 09:23:03;;;;;;;1.25;1.15;;;18.50;53.40;;;;;;5054633;28;20213;-73
2024/01/22 09:25:31;;;;;;;1.55;1.30;;;18.50;53.40;;;;;;5060602;28;20284;-73
2024/01/22 09:27:57;;;;;;;1.05;1.02;;;18.50;53.40;;;;;;5057959;28;20211;-73
2024/01/22 09:30:23;;;;;;;1.70;1.60;;;18.50;53.40;;;;;;5046923;28;20185;-73
2024/01/22 09:32:50;;;;;;;1.63;1.52;;;18.50;53.40;;;;;;5050936;28;20183;-73
2024/01/22 09:35:16;;;;;;;1.60;1.50;;;18.50;53.40;;;;;;5053523;28;20174;-73
2024/01/22 09:37:42;;;;;;;1.65;1.50;;;18.50;53.40;;;;;;5062328;28;20281;-73
2024/01/22 09:40:11;;;;;;;1.80;1.70;;;18.50;53.50;;;;;;5044768;28;20187;-73
2024/01/22 09:42:39;;;;;;;2.15;1.98;;;18.50;53.40;;;;;;5045020;28;20650;-73
2024/01/22 09:45:08;;;;;;;2.63;2.00;;;18.50;53.40;;;;;;5052602;28;20198;-74
2024/01/22 09:47:37;;;;;;;2.03;1.70;;;18.50;53.40;;;;;;5079235;28;20690;-73
2024/01/22 09:50:04;;;;;;;2.08;1.88;;;18.50;53.40;;;;;;5048663;28;20240;-73
2024/01/22 09:52:33;;;;;;;1.63;1.50;;;18.50;53.50;;;;;;5074308;28;20205;-73
2024/01/22 09:55:01;;;;;;;1.92;1.77;;;18.50;53.50;;;;;;5050615;28;20192;-73
2024/01/22 09:57:28;;;;;;;1.90;1.70;;;18.50;53.50;;;;;;5056327;28;20214;-73
2024/01/22 09:59:56;;;;;;;2.72;1.88;;;18.50;53.50;;;;;;5067523;28;20186;-73
2024/01/22 10:02:22;;;;;;;1.88;1.73;;;18.50;54.00;;;;;;5063940;28;20196;-73
2024/01/22 10:04:48;;;;;;;2.00;1.83;;;18.60;53.50;;;;;;5062667;28;20207;-73
2024/01/22 10:07:15;;;;;;;2.00;1.73;;;18.60;53.50;;;;;;5065683;28;20205;-73
2024/01/22 10:09:46;;;;;;;2.33;1.77;;;18.60;53.50;;;;;;5056132;28;20293;-73
2024/01/22 10:12:12;;;;;;;2.25;2.00;;;18.60;53.50;;;;;;5057939;28;20249;-74
2024/01/22 10:14:40;;;;;;;1.55;1.45;;;18.60;53.50;;;;;;5035992;28;20187;-73
2024/01/22 10:17:17;;;;;;;1.80;1.70;;;18.60;53.50;;;;;;5055972;28;20720;-73
2024/01/22 10:19:48;;;;;;;2.10;1.70;;;18.60;53.50;;;;;;5047723;28;20186;-73
2024/01/22 10:22:24;;;;;;;1.95;1.77;;;18.60;53.50;;;;;;5057645;28;20190;-73
2024/01/22 10:25:03;;;;;;;1.45;1.35;;;18.60;53.50;;;;;;5052166;28;20297;-73
2024/01/22 10:27:28;;;;;;;1.60;1.50;;;18.60;53.50;;;;;;5065527;28;20201;-74
2024/01/22 10:30:12;;;;;;;2.45;1.50;;;18.60;53.50;;;;;;5050478;28;20185;-74
2024/01/22 10:32:38;;;;;;;1.60;1.50;;;18.60;53.50;;;;;;5035225;28;20708;-74
2024/01/22 10:35:21;;;;;;;1.65;1.50;;;18.60;53.50;;;;;;5054707;28;20236;-74
2024/01/22 10:38:04;;;;;;;1.75;1.65;;;18.70;53.60;;;;;;5038979;28;20206;-74
2024/01/22 10:40:30;;;;;;;1.95;1.50;;;18.70;53.60;;;;;;5048437;28;20280;-74
2024/01/22 10:42:56;;;;;;;1.58;1.48;;;18.70;53.60;;;;;;5070549;28;20214;-74
2024/01/22 10:45:25;;;;;;;2.00;1.48;;;18.70;53.70;;;;;;5044606;28;20185;-74
2024/01/22 10:47:55;;;;;;;1.85;1.75;;;18.70;53.70;;;;;;5059445;28;20206;-74
2024/01/22 10:50:22;;;;;;;1.48;1.38;;;18.70;53.80;;;;;;5051378;28;20185;-74
2024/01/22 10:52:50;;;;;;;1.75;1.60;;;18.70;53.80;;;;;;5070669;28;20194;-74
2024/01/22 10:55:16;;;;;;;1.67;1.48;;;18.70;53.80;;;;;;5061136;28;20261;-74
2024/01/22 10:57:48;;;;;;;1.80;1.60;;;18.70;53.80;;;;;;5073818;28;20292;-74
2024/01/22 11:00:16;;;;;;;1.60;1.50;;;18.70;53.80;;;;;;5062621;28;20233;-74
2024/01/22 11:02:48;;;;;;;2.83;1.65;;;18.70;53.80;;;;;;5047408;28;20179;-74
2024/01/22 11:05:15;;;;;;;1.27;1.17;;;18.70;53.90;;;;;;5056184;28;20195;-74
2024/01/22 11:07:41;;;;;;;1.50;1.40;;;18.70;53.90;;;;;;5053811;28;20202;-74
2024/01/22 11:10:11;;;;;;;1.67;1.33;;;18.70;53.90;;;;;;5043706;28;20191;-74
2024/01/22 11:12:46;;;;;;;1.38;1.27;;;18.70;53.90;;;;;;5045291;28;20186;-74
2024/01/22 11:15:12;;;;;;;1.63;1.52;;;18.70;53.90;;;;;;5062142;28;20190;-74
2024/01/22 11:17:38;;;;;;;2.28;1.30;;;18.70;53.90;;;;;;5071905;28;20337;-74
2024/01/22 11:20:23;;;;;;;1.88;1.42;;;18.70;54.00;;;;;;5048659;28;20202;-74
2024/01/22 11:23:12;;;;;;;1.73;1.42;;;18.70;54.10;;;;;;5058073;28;20179;-74
2024/01/22 11:25:38;;;;;;;1.83;1.40;;;18.70;54.00;;;;;;5035742;28;20263;-74
2024/01/22 11:28:12;;;;;;;1.20;1.10;;;18.70;54.00;;;;;;5073266;28;20198;-74
2024/01/22 11:30:43;;;;;;;1.20;1.10;;;18.70;54.10;;;;;;5061375;28;20235;-74
2024/01/22 11:33:24;;;;;;;1.33;1.23;;;18.70;54.10;;;;;;5059511;28;20202;-74
2024/01/22 11:35:50;;;;;;;1.40;1.30;;;18.70;54.20;;;;;;5045333;28;20191;-74
2024/01/22 11:38:42;;;;;;;1.13;1.02;;;18.80;54.20;;;;;;5039481;28;20233;-74
2024/01/22 11:41:08;;;;;;;2.15;1.25;;;18.70;54.20;;;;;;5042261;28;20194;-74
2024/01/22 11:43:34;;;;;;;1.80;1.20;;;18.80;54.30;;;;;;5058202;28;20221;-74
2024/01/22 11:46:15;;;;;;;1.13;1.10;;;18.80;54.30;;;;;;5053302;28;20214;-74
2024/01/22 11:48:41;;;;;;;1.20;1.10;;;18.80;54.40;;;;;;5040258;28;20178;-74
2024/01/22 11:51:07;;;;;;;1.65;1.30;;;18.70;54.30;;;;;;5059572;28;20236;-74
2024/01/22 11:53:54;;;;;;;1.33;1.13;;;18.80;54.40;;;;;;5074046;28;20194;-74
2024/01/22 11:56:21;;;;;;;1.20;1.10;;;18.70;54.30;;;;;;5052241;28;20210;-74
2024/01/22 11:58:47;;;;;;;1.25;1.15;;;18.70;54.40;;;;;;5063491;28;20187;-74
2024/01/22 12:01:14;;;;;;;1.55;1.17;;;18.80;54.50;;;;;;5060312;28;20236;-74
2024/01/22 12:03:39;;;;;;;1.20;1.10;;;18.70;54.40;;;;;;5037707;28;20243;-73
2024/01/22 12:06:08;;;;;;;1.25;1.08;;;18.80;54.50;;;;;;5031910;28;20232;-74
2024/01/22 12:08:35;;;;;;;1.30;1.20;;;18.80;54.50;;;;;;5051191;28;20222;-74
2024/01/22 12:11:12;;;;;;;1.88;1.25;;;18.80;54.50;;;;;;5053189;28;20174;-73
2024/01/22 12:13:42;;;;;;;1.20;0.93;;;18.70;54.40;;;;;;5045070;28;20218;-74
2024/01/22 12:16:16;;;;;;;1.10;1.00;;;18.70;54.50;;;;;;5041546;28;20191;-74
2024/01/22 12:18:41;;;;;;;1.30;1.20;;;18.80;54.60;;;;;;5040748;28;20206;-74
2024/01/22 12:21:11;;;;;;;1.20;1.10;;;18.80;54.60;;;;;;5038313;28;20321;-74
2024/01/22 12:23:39;;;;;;;1.98;1.52;;;18.80;54.60;;;;;;5032946;28;20207;-74
2024/01/22 12:26:22;;;;;;;1.67;1.58;;;18.80;54.60;;;;;;5048022;28;20183;-74
2024/01/22 12:28:52;;;;;;;2.00;1.90;;;18.80;54.70;;;;;;5046287;28;20245;-74
2024/01/22 12:31:22;;;;;;;3.78;2.50;;;18.80;54.70;;;;;;5034701;28;20662;-74
2024/01/22 12:33:48;;;;;;;2.55;2.30;;;18.80;54.70;;;;;;5060919;28;20197;-74
2024/01/22 12:36:15;;;;;;;3.90;2.80;;;18.80;54.70;;;;;;5059526;28;20267;-74
2024/01/22 12:38:52;;;;;;;5.30;3.72;;;18.80;54.80;;;;;;5044932;28;20187;-74
2024/01/22 12:41:19;;;;;;;4.65;3.60;;;18.80;54.80;;;;;;5027632;28;20258;-74
2024/01/22 12:43:46;;;;;;;5.85;3.85;;;18.80;54.80;;;;;;5040962;28;20207;-73
2024/01/22 12:46:17;;;;;;;5.75;4.28;;;18.80;54.80;;;;;;5043265;28;20187;-74
2024/01/22 12:48:45;;;;;;;6.35;5.10;;;18.70;54.70;;;;;;5042523;28;20262;-74